Time;durP1;ratioP1;P1;durP2;ratioP2;P2;SDS_P1;SDS_P2;PMS_P1;PMS_P2;Temp;Humidity;BMP_temperature;BMP_pressure;BME280_temperature;BME280_humidity;BME280_pressure;Samples;Min_cycle;Max_cycle;Signal;HPM_P1;HPM_P2
2023/07/13 00:00:41;;;;;;;11.10;10.83;;;15.00;99.90;;;;;;5060126;28;20986;-65
2023/07/13 00:03:08;;;;;;;11.20;10.90;;;15.00;99.90;;;;;;5068573;28;20472;-67
2023/07/13 00:05:35;;;;;;;10.70;10.50;;;15.10;99.90;;;;;;5071314;28;20462;-65
2023/07/13 00:08:02;;;;;;;10.17;9.97;;;15.10;99.90;;;;;;5069399;28;20494;-65
2023/07/13 00:10:30;;;;;;;10.10;9.90;;;15.00;99.90;;;;;;5072313;28;20497;-66
2023/07/13 00:12:57;;;;;;;10.30;10.10;;;15.00;99.90;;;;;;5069065;28;20581;-64
2023/07/13 00:15:27;;;;;;;10.73;10.53;;;15.00;99.90;;;;;;5071752;28;20490;-65
2023/07/13 00:17:56;;;;;;;10.73;10.53;;;14.90;99.90;;;;;;5062269;28;20458;-65
2023/07/13 00:20:25;;;;;;;10.37;10.17;;;14.90;99.90;;;;;;5066613;28;20459;-65
2023/07/13 00:22:54;;;;;;;9.87;9.67;;;14.90;99.90;;;;;;5072998;28;20480;-65
2023/07/13 00:25:21;;;;;;;10.00;9.80;;;14.80;99.90;;;;;;5067605;28;20550;-64
2023/07/13 00:27:49;;;;;;;9.90;9.70;;;14.80;99.90;;;;;;5080113;28;20469;-65
2023/07/13 00:30:16;;;;;;;9.97;9.77;;;14.80;99.90;;;;;;5067121;28;22247;-65
2023/07/13 00:32:43;;;;;;;10.00;9.80;;;14.80;99.90;;;;;;5073103;28;20848;-65
2023/07/13 00:35:14;;;;;;;9.80;9.60;;;14.70;99.90;;;;;;5069252;28;20454;-64
2023/07/13 00:37:41;;;;;;;10.20;10.00;;;14.80;99.90;;;;;;5069628;28;20454;-65
2023/07/13 00:40:11;;;;;;;9.93;9.73;;;14.80;99.90;;;;;;5068672;28;20459;-64
2023/07/13 00:42:38;;;;;;;9.67;9.47;;;14.80;99.90;;;;;;5070850;28;20463;-64
2023/07/13 00:45:07;;;;;;;9.90;9.70;;;14.80;99.90;;;;;;5068633;28;20566;-64
2023/07/13 00:47:34;;;;;;;9.50;9.30;;;14.80;99.90;;;;;;5072563;28;20485;-66
2023/07/13 00:50:03;;;;;;;9.80;9.60;;;14.80;99.90;;;;;;5068683;28;20446;-65
2023/07/13 00:52:32;;;;;;;9.87;9.67;;;14.80;99.90;;;;;;5066659;28;20474;-65
2023/07/13 00:55:00;;;;;;;9.73;9.53;;;14.80;99.90;;;;;;5063798;28;20490;-66
2023/07/13 00:57:28;;;;;;;9.57;9.37;;;14.70;99.90;;;;;;5069151;28;20901;-66
2023/07/13 00:59:58;;;;;;;9.27;9.07;;;14.80;99.90;;;;;;5068690;28;20462;-66
2023/07/13 01:02:27;;;;;;;9.37;9.17;;;14.70;99.90;;;;;;5068332;28;20818;-67
2023/07/13 01:04:54;;;;;;;9.57;9.37;;;14.70;99.90;;;;;;5067901;28;20462;-66
2023/07/13 01:07:20;;;;;;;9.53;9.33;;;14.80;99.90;;;;;;5064512;28;20475;-67
2023/07/13 01:09:49;;;;;;;9.00;8.90;;;14.70;99.90;;;;;;5068384;28;20931;-65
2023/07/13 01:12:16;;;;;;;8.80;8.70;;;14.60;99.90;;;;;;5071192;28;20832;-66
2023/07/13 01:14:43;;;;;;;8.93;8.83;;;14.60;99.90;;;;;;5066557;28;20529;-66
2023/07/13 01:17:12;;;;;;;9.33;9.13;;;14.60;99.90;;;;;;5069854;28;20513;-66
2023/07/13 01:19:42;;;;;;;8.83;8.73;;;14.60;99.90;;;;;;5067808;28;20463;-66
2023/07/13 01:22:13;;;;;;;9.27;9.07;;;14.60;99.90;;;;;;5067955;28;20599;-66
2023/07/13 01:24:42;;;;;;;9.53;9.33;;;14.60;99.90;;;;;;5071909;28;20466;-66
2023/07/13 01:27:10;;;;;;;9.30;9.10;;;14.60;99.90;;;;;;5065656;28;20469;-66
2023/07/13 01:29:41;;;;;;;8.70;8.60;;;14.60;99.90;;;;;;5066667;28;20462;-66
2023/07/13 01:32:09;;;;;;;9.10;8.90;;;14.60;99.90;;;;;;5067832;28;20546;-67
2023/07/13 01:34:37;;;;;;;8.50;8.40;;;14.60;99.90;;;;;;5067128;28;20497;-66
2023/07/13 01:37:05;;;;;;;8.33;8.23;;;14.60;99.90;;;;;;5069727;28;20550;-65
2023/07/13 01:39:33;;;;;;;8.60;8.50;;;14.50;99.90;;;;;;5063270;28;20457;-67
2023/07/13 01:42:00;;;;;;;8.50;8.40;;;14.60;99.90;;;;;;5068582;28;20462;-66
2023/07/13 01:44:28;;;;;;;8.53;8.43;;;14.50;99.90;;;;;;5069879;28;20847;-65
2023/07/13 01:46:55;;;;;;;8.37;8.27;;;14.40;99.90;;;;;;5067290;28;20827;-67
2023/07/13 01:49:22;;;;;;;8.23;8.13;;;14.40;99.90;;;;;;5075607;28;20815;-65
2023/07/13 01:51:49;;;;;;;8.37;8.27;;;14.40;99.90;;;;;;5067225;28;20451;-66
2023/07/13 01:54:16;;;;;;;8.10;8.00;;;14.40;99.90;;;;;;5067526;28;20499;-67
2023/07/13 01:56:44;;;;;;;8.30;8.20;;;14.40;99.90;;;;;;5067390;28;20458;-67
2023/07/13 01:59:12;;;;;;;8.17;8.07;;;14.40;99.90;;;;;;5065999;28;20506;-66
2023/07/13 02:01:39;;;;;;;8.20;8.10;;;14.50;99.90;;;;;;5067161;28;20475;-67
2023/07/13 02:04:06;;;;;;;7.83;7.73;;;14.40;99.90;;;;;;5070381;28;20868;-65
2023/07/13 02:06:32;;;;;;;8.10;8.00;;;14.40;99.90;;;;;;5070632;28;20462;-66
2023/07/13 02:09:00;;;;;;;7.63;7.53;;;14.40;99.90;;;;;;5067890;28;20470;-67
2023/07/13 02:11:32;;;;;;;8.00;7.90;;;14.40;99.90;;;;;;5067812;28;20571;-68
2023/07/13 02:14:02;;;;;;;8.03;7.93;;;14.40;99.90;;;;;;5068302;28;20486;-65
2023/07/13 02:16:29;;;;;;;7.30;7.20;;;14.40;99.90;;;;;;5062855;28;20482;-68
2023/07/13 02:18:56;;;;;;;7.80;7.70;;;14.30;99.90;;;;;;5074949;28;20459;-67
2023/07/13 02:21:25;;;;;;;8.10;8.00;;;14.30;99.90;;;;;;5067771;28;20830;-66
2023/07/13 02:23:52;;;;;;;7.53;7.43;;;14.40;99.90;;;;;;5067825;28;20989;-68
2023/07/13 02:26:19;;;;;;;7.90;7.80;;;14.40;99.90;;;;;;5066626;28;20467;-66
2023/07/13 02:28:46;;;;;;;7.50;7.40;;;14.40;99.90;;;;;;5067526;28;20459;-66
2023/07/13 02:31:16;;;;;;;7.50;7.40;;;14.30;99.90;;;;;;5071666;28;20455;-66
2023/07/13 02:33:44;;;;;;;7.70;7.60;;;14.30;99.90;;;;;;5068011;28;20491;-67
2023/07/13 02:36:11;;;;;;;15.83;15.33;;;14.30;99.90;;;;;;5066453;28;20828;-67
2023/07/13 02:38:38;;;;;;;7.53;7.43;;;14.30;99.90;;;;;;5067058;28;20463;-65
2023/07/13 02:41:06;;;;;;;10.63;10.33;;;14.30;99.90;;;;;;5068448;28;20466;-66
2023/07/13 02:43:34;;;;;;;7.40;7.30;;;14.30;99.90;;;;;;5069915;28;20815;-66
2023/07/13 02:46:06;;;;;;;6.80;6.70;;;14.30;99.90;;;;;;5066579;28;20534;-65
2023/07/13 02:48:35;;;;;;;8.40;8.20;;;14.20;99.90;;;;;;5069183;28;20528;-67
2023/07/13 02:51:02;;;;;;;7.00;6.90;;;14.20;99.90;;;;;;5074853;28;20463;-67
2023/07/13 02:53:29;;;;;;;7.20;7.10;;;14.20;99.90;;;;;;5066183;28;20876;-67
2023/07/13 02:55:56;;;;;;;7.93;7.83;;;14.20;99.90;;;;;;5077449;28;20455;-67
2023/07/13 02:58:24;;;;;;;7.80;7.70;;;14.10;99.90;;;;;;5070599;28;20463;-68
2023/07/13 03:00:51;;;;;;;8.77;8.57;;;14.20;99.90;;;;;;5072459;28;20517;-67
2023/07/13 03:03:18;;;;;;;7.30;7.20;;;14.20;99.90;;;;;;5072125;28;20968;-66
2023/07/13 03:05:49;;;;;;;7.27;7.17;;;14.20;99.90;;;;;;5068729;28;20467;-68
2023/07/13 03:08:19;;;;;;;6.77;6.67;;;14.10;99.90;;;;;;5075685;28;20520;-67
2023/07/13 03:10:47;;;;;;;7.63;7.53;;;14.10;99.90;;;;;;5068574;28;20471;-66
2023/07/13 03:13:14;;;;;;;6.73;6.63;;;14.10;99.90;;;;;;5070716;28;20463;-66
2023/07/13 03:15:41;;;;;;;6.90;6.80;;;14.10;99.90;;;;;;5070749;28;20492;-66
2023/07/13 03:18:07;;;;;;;6.90;6.80;;;14.10;99.90;;;;;;5071060;28;20467;-66
2023/07/13 03:20:34;;;;;;;7.37;7.27;;;14.00;99.90;;;;;;5067994;28;20463;-66
2023/07/13 03:23:04;;;;;;;7.20;7.10;;;14.00;99.90;;;;;;5070660;28;20491;-66
2023/07/13 03:25:32;;;;;;;7.27;7.17;;;14.00;99.90;;;;;;5069403;28;20459;-66
2023/07/13 03:27:58;;;;;;;7.07;6.97;;;14.00;99.90;;;;;;5069945;28;20455;-65
2023/07/13 03:30:27;;;;;;;7.20;7.10;;;14.00;99.90;;;;;;5065294;28;20455;-67
2023/07/13 03:32:55;;;;;;;7.47;7.30;;;13.90;99.90;;;;;;5077662;28;20466;-66
2023/07/13 03:35:22;;;;;;;7.00;6.90;;;14.00;99.90;;;;;;5072243;28;20546;-65
2023/07/13 03:37:51;;;;;;;8.53;8.10;;;14.00;99.90;;;;;;5070894;28;20839;-67
2023/07/13 03:40:20;;;;;;;6.97;6.87;;;14.00;99.90;;;;;;5070071;28;20498;-67
2023/07/13 03:42:47;;;;;;;6.80;6.70;;;14.00;99.90;;;;;;5068890;28;20455;-67
2023/07/13 03:45:17;;;;;;;7.13;7.03;;;14.00;99.90;;;;;;5069239;28;21009;-65
2023/07/13 03:47:44;;;;;;;7.47;7.37;;;14.00;99.90;;;;;;5070351;28;20467;-66
2023/07/13 03:50:11;;;;;;;7.40;7.30;;;14.00;99.90;;;;;;5070230;28;20829;-66
2023/07/13 03:52:39;;;;;;;7.60;7.50;;;13.90;99.90;;;;;;5069195;28;20467;-65
2023/07/13 03:55:07;;;;;;;6.87;6.77;;;13.90;99.90;;;;;;5066414;28;20499;-66
2023/07/13 03:57:35;;;;;;;6.83;6.73;;;13.90;99.90;;;;;;5066936;28;20535;-67
2023/07/13 04:00:02;;;;;;;6.60;6.50;;;13.90;99.90;;;;;;5070745;28;20949;-66
2023/07/13 04:02:30;;;;;;;6.57;6.47;;;13.80;99.90;;;;;;5080504;28;20468;-65
2023/07/13 04:04:57;;;;;;;6.37;6.27;;;13.80;99.90;;;;;;5080010;28;20466;-66
2023/07/13 04:07:24;;;;;;;6.70;6.60;;;13.80;99.90;;;;;;5067984;28;20463;-65
2023/07/13 04:09:51;;;;;;;6.73;6.63;;;13.80;99.90;;;;;;5069217;28;20446;-66
2023/07/13 04:12:18;;;;;;;6.43;6.33;;;13.90;99.90;;;;;;5074638;28;20459;-65
2023/07/13 04:14:47;;;;;;;7.07;6.97;;;13.90;99.90;;;;;;5072536;28;20482;-65
2023/07/13 04:17:15;;;;;;;6.50;6.40;;;13.90;99.90;;;;;;5066916;28;20464;-66
2023/07/13 04:19:42;;;;;;;7.17;7.07;;;14.00;99.90;;;;;;5077856;28;20458;-66
2023/07/13 04:22:09;;;;;;;6.97;6.87;;;14.00;99.90;;;;;;5073324;28;20463;-66
2023/07/13 04:24:37;;;;;;;7.43;7.23;;;13.90;99.90;;;;;;5065066;28;20505;-65
2023/07/13 04:27:04;;;;;;;7.10;7.00;;;14.00;99.90;;;;;;5072531;28;20466;-65
2023/07/13 04:29:31;;;;;;;8.27;7.97;;;14.00;99.90;;;;;;5069882;28;20470;-64
2023/07/13 04:31:59;;;;;;;7.23;7.00;;;14.10;99.90;;;;;;5073005;28;20451;-66
2023/07/13 04:34:26;;;;;;;7.07;6.87;;;14.10;99.90;;;;;;5073983;28;20509;-64
2023/07/13 04:36:53;;;;;;;8.37;8.07;;;14.20;99.90;;;;;;5076619;28;20465;-65
2023/07/13 04:39:22;;;;;;;8.30;8.00;;;14.20;99.90;;;;;;5068922;28;20470;-67
2023/07/13 04:41:49;;;;;;;7.30;7.10;;;14.30;99.90;;;;;;5067437;28;20900;-65
2023/07/13 04:44:18;;;;;;;8.40;8.10;;;14.40;99.90;;;;;;5058877;28;20863;-66
2023/07/13 04:46:45;;;;;;;7.30;7.10;;;14.50;99.90;;;;;;5071040;28;20546;-65
2023/07/13 04:49:13;;;;;;;8.30;8.00;;;14.60;99.90;;;;;;5076202;28;20486;-66
2023/07/13 04:51:40;;;;;;;7.43;7.23;;;14.60;99.90;;;;;;5068527;28;20467;-66
2023/07/13 04:54:07;;;;;;;8.60;8.30;;;14.70;99.90;;;;;;5068520;28;20482;-65
2023/07/13 04:56:34;;;;;;;7.97;7.67;;;14.70;99.90;;;;;;5069327;28;20544;-66
2023/07/13 04:59:01;;;;;;;8.87;8.47;;;14.80;99.90;;;;;;5067237;28;20463;-66
2023/07/13 05:01:28;;;;;;;8.10;7.80;;;14.90;99.90;;;;;;5065241;28;20947;-68
2023/07/13 05:03:58;;;;;;;8.87;8.53;;;15.00;99.90;;;;;;5059909;28;20451;-66
2023/07/13 05:06:27;;;;;;;8.13;7.93;;;15.10;99.90;;;;;;5067942;28;20458;-66
2023/07/13 05:08:54;;;;;;;9.13;8.80;;;15.20;99.90;;;;;;5068540;28;20462;-67
2023/07/13 05:11:22;;;;;;;8.87;8.57;;;15.30;99.90;;;;;;5070249;28;20547;-65
2023/07/13 05:13:49;;;;;;;8.37;8.10;;;15.40;99.90;;;;;;5067322;28;20463;-66
2023/07/13 05:16:15;;;;;;;8.97;8.57;;;15.40;99.90;;;;;;5069506;28;20484;-66
2023/07/13 05:18:43;;;;;;;8.53;8.23;;;15.50;99.90;;;;;;5066037;28;20460;-65
2023/07/13 05:21:11;;;;;;;9.37;9.00;;;15.50;99.90;;;;;;5061288;28;20473;-68
2023/07/13 05:23:41;;;;;;;9.10;8.70;;;15.60;99.90;;;;;;5075088;28;20815;-66
2023/07/13 05:26:09;;;;;;;10.17;9.33;;;15.70;99.90;;;;;;5067386;28;20467;-65
2023/07/13 05:28:37;;;;;;;9.50;8.93;;;15.70;99.90;;;;;;5071843;28;20474;-66
2023/07/13 05:31:04;;;;;;;9.90;9.50;;;15.80;99.90;;;;;;5069907;28;20459;-66
2023/07/13 05:33:31;;;;;;;9.40;9.10;;;15.80;99.90;;;;;;5067522;28;20447;-66
2023/07/13 05:36:00;;;;;;;9.83;9.43;;;15.80;99.90;;;;;;5070118;28;20489;-65
2023/07/13 05:38:27;;;;;;;11.50;10.33;;;15.90;99.90;;;;;;5069797;28;20905;-65
2023/07/13 05:40:57;;;;;;;10.00;9.70;;;16.00;99.90;;;;;;5065871;28;20469;-67
2023/07/13 05:43:24;;;;;;;11.30;10.80;;;16.00;99.90;;;;;;5068809;28;20529;-65
2023/07/13 05:45:53;;;;;;;9.07;8.77;;;16.10;99.90;;;;;;5059653;28;20563;-67
2023/07/13 05:48:21;;;;;;;10.33;9.73;;;16.10;99.90;;;;;;5064926;28;20466;-67
2023/07/13 05:50:49;;;;;;;9.50;9.10;;;16.00;99.90;;;;;;5067048;28;20525;-67
2023/07/13 05:53:16;;;;;;;12.40;11.00;;;16.10;99.90;;;;;;5068666;28;20657;-66
2023/07/13 05:55:47;;;;;;;13.13;11.80;;;16.10;99.90;;;;;;5070028;28;20853;-67
2023/07/13 05:58:15;;;;;;;11.70;10.67;;;16.20;99.90;;;;;;5065182;28;20958;-67
2023/07/13 06:00:42;;;;;;;10.40;9.70;;;16.40;99.90;;;;;;5063059;28;20451;-67
2023/07/13 06:03:09;;;;;;;10.20;9.80;;;16.60;99.90;;;;;;5065789;28;20509;-66
2023/07/13 06:05:37;;;;;;;10.93;10.53;;;16.80;99.90;;;;;;5066791;28;20936;-64
2023/07/13 06:08:05;;;;;;;10.77;10.37;;;16.80;99.90;;;;;;5065813;28;20482;-67
2023/07/13 06:10:34;;;;;;;10.53;10.13;;;16.90;99.90;;;;;;5059400;28;20560;-65
2023/07/13 06:13:01;;;;;;;11.83;11.30;;;17.20;99.90;;;;;;5068227;28;20547;-65
2023/07/13 06:15:30;;;;;;;10.80;10.40;;;17.50;99.90;;;;;;5061846;28;20491;-66
2023/07/13 06:17:56;;;;;;;11.90;11.30;;;17.60;99.90;;;;;;5058475;28;20471;-66
2023/07/13 06:20:23;;;;;;;12.70;12.20;;;17.90;99.90;;;;;;5065704;28;20455;-67
2023/07/13 06:22:50;;;;;;;12.70;12.20;;;17.80;99.90;;;;;;5069084;28;20474;-66
2023/07/13 06:25:18;;;;;;;13.60;13.00;;;17.90;99.90;;;;;;5070499;28;20963;-67
2023/07/13 06:27:45;;;;;;;12.20;11.70;;;17.90;99.90;;;;;;5070603;28;20601;-65
2023/07/13 06:30:13;;;;;;;12.80;12.20;;;17.80;99.90;;;;;;5064816;28;20470;-65
2023/07/13 06:32:43;;;;;;;18.87;12.53;;;18.00;99.90;;;;;;5072782;28;20469;-66
2023/07/13 06:35:12;;;;;;;12.40;11.90;;;17.90;99.90;;;;;;5070693;28;20497;-66
2023/07/13 06:37:39;;;;;;;12.70;12.20;;;17.90;99.90;;;;;;5071710;28;20832;-67
2023/07/13 06:40:07;;;;;;;15.30;14.03;;;18.10;99.90;;;;;;5068506;28;20567;-67
2023/07/13 06:42:34;;;;;;;12.30;11.80;;;18.30;99.90;;;;;;5073806;28;20458;-66
2023/07/13 06:45:01;;;;;;;14.93;13.80;;;18.10;99.90;;;;;;5067982;28;20870;-67
2023/07/13 06:47:28;;;;;;;13.10;12.53;;;18.20;99.90;;;;;;5059817;28;20470;-66
2023/07/13 06:49:56;;;;;;;12.60;12.10;;;18.20;99.90;;;;;;5057956;28;20911;-66
2023/07/13 06:52:22;;;;;;;12.80;12.30;;;18.10;99.90;;;;;;5059667;28;20923;-67
2023/07/13 06:54:49;;;;;;;12.90;12.30;;;18.30;99.90;;;;;;5059776;28;21251;-66
2023/07/13 06:57:16;;;;;;;12.03;11.57;;;18.40;99.90;;;;;;5058005;28;20966;-66
2023/07/13 06:59:44;;;;;;;13.67;13.00;;;18.60;99.90;;;;;;5065314;28;20455;-66
2023/07/13 07:02:12;;;;;;;14.03;13.23;;;18.80;99.90;;;;;;5067721;28;21109;-66
2023/07/13 07:04:38;;;;;;;13.77;13.03;;;18.90;99.90;;;;;;5066930;28;20470;-66
2023/07/13 07:07:06;;;;;;;13.20;12.70;;;18.90;99.90;;;;;;5071087;28;20513;-65
2023/07/13 07:09:34;;;;;;;14.20;13.50;;;18.80;99.90;;;;;;5065036;28;20459;-66
2023/07/13 07:12:01;;;;;;;14.03;13.43;;;18.90;99.90;;;;;;5063161;28;20828;-66
2023/07/13 07:14:27;;;;;;;13.47;12.93;;;18.90;99.90;;;;;;5055358;28;20473;-66
2023/07/13 07:16:56;;;;;;;14.13;13.03;;;19.00;99.90;;;;;;5065099;28;20477;-67
2023/07/13 07:19:23;;;;;;;13.00;12.30;;;19.00;99.90;;;;;;5059590;28;21027;-65
2023/07/13 07:21:50;;;;;;;13.50;12.90;;;19.30;99.90;;;;;;5061373;28;20467;-66
2023/07/13 07:24:18;;;;;;;14.60;13.80;;;19.20;99.90;;;;;;5054420;28;20524;-66
2023/07/13 07:26:45;;;;;;;13.63;13.03;;;19.40;99.90;;;;;;5058899;28;20467;-67
2023/07/13 07:29:12;;;;;;;12.73;12.23;;;19.50;99.90;;;;;;5065961;28;20460;-65
2023/07/13 07:31:40;;;;;;;13.77;13.17;;;19.50;99.90;;;;;;5059035;28;20466;-66
2023/07/13 07:34:06;;;;;;;14.27;13.57;;;19.70;99.90;;;;;;5059474;28;20472;-65
2023/07/13 07:36:33;;;;;;;14.10;13.50;;;19.40;99.90;;;;;;5054342;28;20593;-65
2023/07/13 07:39:00;;;;;;;14.77;14.00;;;19.60;99.90;;;;;;5060264;28;20991;-65
2023/07/13 07:41:29;;;;;;;13.57;13.03;;;19.50;99.90;;;;;;5054299;28;20470;-66
2023/07/13 07:43:57;;;;;;;14.17;13.27;;;19.40;99.90;;;;;;5051832;28;20478;-65
2023/07/13 07:46:23;;;;;;;13.30;12.80;;;19.50;99.90;;;;;;5056848;28;20915;-65
2023/07/13 07:48:50;;;;;;;13.20;12.70;;;19.50;99.90;;;;;;5069542;28;20550;-66
2023/07/13 07:51:17;;;;;;;14.97;14.27;;;19.60;99.90;;;;;;5069779;28;20459;-66
2023/07/13 07:53:44;;;;;;;14.87;13.87;;;19.60;99.90;;;;;;5071598;28;20497;-65
2023/07/13 07:56:10;;;;;;;13.63;13.13;;;19.80;99.90;;;;;;5066926;28;20494;-65
2023/07/13 07:58:39;;;;;;;14.37;13.47;;;19.80;99.90;;;;;;5068547;28;20876;-65
2023/07/13 08:01:07;;;;;;;14.03;13.43;;;19.80;99.90;;;;;;5066991;28;20462;-67
2023/07/13 08:03:34;;;;;;;15.30;14.50;;;19.90;99.90;;;;;;5070320;28;20463;-67
2023/07/13 08:06:01;;;;;;;14.93;14.33;;;20.10;99.90;;;;;;5067589;28;20609;-66
2023/07/13 08:08:28;;;;;;;13.90;13.23;;;20.40;99.90;;;;;;5069038;28;20572;-67
2023/07/13 08:10:54;;;;;;;14.07;13.47;;;20.70;99.90;;;;;;5065799;28;20995;-66
2023/07/13 08:13:22;;;;;;;13.73;13.17;;;21.00;99.90;;;;;;5064483;28;20470;-66
2023/07/13 08:15:50;;;;;;;13.83;13.23;;;21.20;99.90;;;;;;5068287;28;20495;-66
2023/07/13 08:18:17;;;;;;;15.23;14.20;;;21.20;99.90;;;;;;5066769;28;21047;-65
2023/07/13 08:20:44;;;;;;;16.07;14.87;;;21.10;99.90;;;;;;5064916;28;20968;-66
2023/07/13 08:23:12;;;;;;;13.83;13.20;;;21.10;99.90;;;;;;5063135;28;20573;-66
2023/07/13 08:25:39;;;;;;;16.23;14.57;;;20.90;99.90;;;;;;5063449;28;20491;-65
2023/07/13 08:28:06;;;;;;;14.50;13.80;;;21.10;99.90;;;;;;5069273;28;20498;-66
2023/07/13 08:30:33;;;;;;;14.70;13.70;;;21.30;99.90;;;;;;5068942;28;20459;-66
2023/07/13 08:33:01;;;;;;;14.77;13.93;;;21.40;99.90;;;;;;5066776;28;20465;-66
2023/07/13 08:35:27;;;;;;;15.30;14.30;;;21.40;99.90;;;;;;5066341;28;20483;-66
2023/07/13 08:37:54;;;;;;;14.43;13.83;;;21.30;99.90;;;;;;5066153;28;20505;-66
2023/07/13 08:40:25;;;;;;;14.00;13.40;;;21.10;99.90;;;;;;5066772;28;20485;-68
2023/07/13 08:42:56;;;;;;;14.30;13.70;;;21.40;99.90;;;;;;5066810;28;20467;-65
2023/07/13 08:45:25;;;;;;;15.97;15.07;;;21.90;99.90;;;;;;5061279;28;20566;-65
2023/07/13 08:47:54;;;;;;;15.33;14.47;;;21.90;99.90;;;;;;5065242;28;20707;-65
2023/07/13 08:50:28;;;;;;;14.50;13.90;;;21.50;99.90;;;;;;5058570;28;20828;-68
2023/07/13 08:52:57;;;;;;;15.23;14.43;;;21.70;99.90;;;;;;5064746;28;20450;-67
2023/07/13 08:55:31;;;;;;;15.33;14.63;;;21.90;99.90;;;;;;5066078;28;20494;-65
2023/07/13 08:58:02;;;;;;;15.83;15.13;;;22.50;99.90;;;;;;5060952;28;20557;-66
2023/07/13 09:00:47;;;;;;;15.40;14.60;;;22.60;99.90;;;;;;5057167;28;20993;-66
2023/07/13 09:03:20;;;;;;;14.50;13.90;;;22.40;99.90;;;;;;5059555;28;20466;-66
2023/07/13 09:05:54;;;;;;;35.50;34.03;;;22.70;99.90;;;;;;5065739;28;20934;-67
2023/07/13 09:08:37;;;;;;;15.23;14.63;;;23.20;99.90;;;;;;5061396;28;20463;-66
2023/07/13 09:11:15;;;;;;;14.60;14.10;;;23.00;99.90;;;;;;5070254;28;20512;-66
2023/07/13 09:13:50;;;;;;;13.90;13.50;;;22.80;99.90;;;;;;5065221;28;20512;-66
2023/07/13 09:16:17;;;;;;;16.60;16.00;;;22.90;99.90;;;;;;5065961;28;20505;-66
2023/07/13 09:18:47;;;;;;;14.13;13.73;;;22.60;99.90;;;;;;5062069;28;20863;-66
2023/07/13 09:21:25;;;;;;;13.63;13.23;;;22.40;99.90;;;;;;5067920;28;20508;-66
2023/07/13 09:23:57;;;;;;;13.70;13.30;;;22.20;99.90;;;;;;5065328;28;20490;-66
2023/07/13 09:26:25;;;;;;;17.83;17.10;;;22.40;99.90;;;;;;5061430;28;20541;-65
2023/07/13 09:28:56;;;;;;;14.20;13.60;;;22.50;99.90;;;;;;5066519;28;20458;-67
2023/07/13 09:31:30;;;;;;;15.93;14.93;;;23.10;99.90;;;;;;5063801;28;20470;-66
2023/07/13 09:33:58;;;;;;;16.03;15.33;;;24.00;99.90;;;;;;5061764;28;20458;-67
2023/07/13 09:36:29;;;;;;;16.87;15.67;;;24.40;99.90;;;;;;5065016;28;20491;-67
2023/07/13 09:39:04;;;;;;;21.47;20.47;;;24.50;99.90;;;;;;5061262;28;20474;-67
2023/07/13 09:41:38;;;;;;;25.30;24.20;;;24.00;99.90;;;;;;5063327;28;20455;-66
2023/07/13 09:44:11;;;;;;;27.07;15.63;;;23.70;99.90;;;;;;5061801;28;20496;-66
2023/07/13 09:46:39;;;;;;;16.10;15.20;;;23.80;99.90;;;;;;5067068;28;20491;-67
2023/07/13 09:49:06;;;;;;;17.03;16.17;;;24.10;99.90;;;;;;5067587;28;20455;-67
2023/07/13 09:51:34;;;;;;;15.10;14.33;;;23.90;99.90;;;;;;5059498;28;20519;-68
2023/07/13 09:54:02;;;;;;;16.00;15.00;;;23.60;99.90;;;;;;5057555;28;20568;-67
2023/07/13 09:56:30;;;;;;;15.30;14.50;;;23.50;99.90;;;;;;5069056;28;20482;-67
2023/07/13 09:58:58;;;;;;;15.07;14.47;;;23.10;99.90;;;;;;5065455;28;20913;-66
2023/07/13 10:01:34;;;;;;;15.80;14.80;;;22.80;99.90;;;;;;5065058;28;20554;-67
2023/07/13 10:04:01;;;;;;;16.20;14.80;;;23.10;99.90;;;;;;5065962;28;20545;-67
2023/07/13 10:06:28;;;;;;;16.63;15.30;;;22.90;99.90;;;;;;5069056;28;20965;-67
2023/07/13 10:08:57;;;;;;;15.83;14.90;;;23.50;99.90;;;;;;5067441;28;20467;-67
2023/07/13 10:11:29;;;;;;;15.77;14.87;;;23.90;99.90;;;;;;5069007;28;20459;-67
2023/07/13 10:13:57;;;;;;;17.40;16.67;;;24.50;99.90;;;;;;5066824;28;20467;-66
2023/07/13 10:16:27;;;;;;;30.73;29.47;;;25.50;99.90;;;;;;5073833;28;20985;-67
2023/07/13 10:18:58;;;;;;;13.70;13.30;;;25.90;99.90;;;;;;5068247;28;20459;-68
2023/07/13 10:21:35;;;;;;;13.80;13.40;;;26.10;99.90;;;;;;5066634;28;20459;-67
2023/07/13 10:24:10;;;;;;;22.10;21.30;;;25.70;99.90;;;;;;5070087;28;20565;-67
2023/07/13 10:26:41;;;;;;;19.53;18.80;;;25.00;99.90;;;;;;5068229;28;20465;-66
2023/07/13 10:29:14;;;;;;;18.17;17.53;;;24.70;99.90;;;;;;5066197;28;20465;-68
2023/07/13 10:31:43;;;;;;;14.10;13.70;;;24.00;99.90;;;;;;5070065;28;20451;-67
2023/07/13 10:34:11;;;;;;;14.00;13.60;;;24.90;99.90;;;;;;5064825;28;20509;-67
2023/07/13 10:36:43;;;;;;;13.83;13.43;;;25.00;99.90;;;;;;5064802;28;20501;-67
2023/07/13 10:39:17;;;;;;;14.97;14.47;;;25.20;99.90;;;;;;5069789;28;20945;-66
2023/07/13 10:41:47;;;;;;;13.40;13.00;;;24.70;99.90;;;;;;5067580;28;20474;-68
2023/07/13 10:44:20;;;;;;;14.70;14.30;;;24.20;99.90;;;;;;5060941;28;20459;-68
2023/07/13 10:46:48;;;;;;;13.40;13.00;;;24.00;99.90;;;;;;5064970;28;20511;-68
2023/07/13 10:49:16;;;;;;;13.70;13.30;;;23.90;99.90;;;;;;5071923;28;20992;-67
2023/07/13 10:51:43;;;;;;;13.13;12.73;;;23.60;99.90;;;;;;5065814;28;20551;-67
2023/07/13 10:54:22;;;;;;;12.80;12.50;;;23.30;99.90;;;;;;5060265;28;20491;-68
2023/07/13 10:56:53;;;;;;;13.30;12.90;;;23.20;99.90;;;;;;5064387;28;20526;-66
2023/07/13 10:59:26;;;;;;;13.07;12.67;;;22.90;99.90;;;;;;5064269;28;20516;-66
2023/07/13 11:01:58;;;;;;;13.77;13.37;;;22.90;99.90;;;;;;5067376;28;21026;-67
2023/07/13 11:04:26;;;;;;;13.57;13.17;;;23.00;99.90;;;;;;5061624;28;20980;-66
2023/07/13 11:06:57;;;;;;;14.10;13.70;;;23.30;99.90;;;;;;5064769;28;20462;-67
2023/07/13 11:09:47;;;;;;;13.77;13.37;;;23.80;99.90;;;;;;5061742;28;20463;-67
2023/07/13 11:12:31;;;;;;;13.90;13.50;;;24.20;99.90;;;;;;5064053;28;21020;-67
2023/07/13 11:15:12;;;;;;;14.13;13.73;;;25.20;99.90;;;;;;5058580;28;21001;-67
2023/07/13 11:17:49;;;;;;;13.50;13.10;;;25.00;99.90;;;;;;5065590;28;20517;-67
2023/07/13 11:20:39;;;;;;;15.27;14.77;;;25.30;99.90;;;;;;5057392;28;20462;-67
2023/07/13 11:23:19;;;;;;;14.33;13.93;;;26.30;99.90;;;;;;5062015;28;21319;-66
2023/07/13 11:25:48;;;;;;;13.87;13.47;;;26.60;99.90;;;;;;5068373;28;20462;-67
2023/07/13 11:28:18;;;;;;;13.90;13.50;;;26.50;99.90;;;;;;5063999;28;20466;-67
2023/07/13 11:30:48;;;;;;;13.40;13.00;;;27.10;99.90;;;;;;5066270;28;20462;-66
2023/07/13 11:33:19;;;;;;;14.13;13.73;;;27.40;99.90;;;;;;5066302;28;20512;-67
2023/07/13 11:35:52;;;;;;;13.97;13.57;;;27.10;99.90;;;;;;5067791;28;20461;-68
2023/07/13 11:38:21;;;;;;;13.60;13.20;;;27.60;99.90;;;;;;5063501;28;20561;-67
2023/07/13 11:40:54;;;;;;;13.73;13.33;;;27.60;99.90;;;;;;5067090;28;20451;-67
2023/07/13 11:43:23;;;;;;;13.67;13.27;;;27.60;99.90;;;;;;5066005;28;20459;-68
2023/07/13 11:45:50;;;;;;;14.30;13.90;;;27.80;99.90;;;;;;5060903;28;21046;-67
2023/07/13 11:48:26;;;;;;;13.73;13.33;;;28.60;99.90;;;;;;5064556;28;20511;-67
2023/07/13 11:50:57;;;;;;;13.53;13.13;;;29.30;99.90;;;;;;5063997;28;20798;-68
2023/07/13 11:53:27;;;;;;;13.90;13.50;;;29.00;99.90;;;;;;5065117;28;20969;-67
2023/07/13 11:55:57;;;;;;;13.90;13.50;;;28.10;99.90;;;;;;5064271;28;20451;-67
2023/07/13 11:58:28;;;;;;;14.13;13.73;;;27.80;99.90;;;;;;5060994;28;20455;-67
2023/07/13 12:00:58;;;;;;;13.90;13.50;;;27.70;99.90;;;;;;5061563;28;20985;-68
2023/07/13 12:03:26;;;;;;;14.47;14.07;;;28.10;99.90;;;;;;5065033;28;20459;-67
2023/07/13 12:06:01;;;;;;;14.30;13.90;;;27.80;99.90;;;;;;5061736;28;20466;-67
2023/07/13 12:08:28;;;;;;;13.67;13.27;;;27.80;99.90;;;;;;5063267;28;20466;-67
2023/07/13 12:11:02;;;;;;;13.17;12.77;;;27.60;99.30;;;;;;5060741;28;21035;-67
2023/07/13 12:13:29;;;;;;;13.63;13.23;;;27.10;99.90;;;;;;5065069;28;20558;-67
2023/07/13 12:15:58;;;;;;;13.77;13.37;;;26.40;99.90;;;;;;5064379;28;20573;-68
2023/07/13 12:18:30;;;;;;;13.60;13.20;;;27.00;99.90;;;;;;5064326;28;20529;-67
2023/07/13 12:20:59;;;;;;;13.70;13.30;;;27.60;99.90;;;;;;5063320;28;20461;-67
2023/07/13 12:23:30;;;;;;;13.80;13.40;;;28.60;99.90;;;;;;5067070;28;20461;-68
2023/07/13 12:25:58;;;;;;;13.77;13.37;;;28.80;98.60;;;;;;5064736;28;20467;-66
2023/07/13 12:28:36;;;;;;;13.63;13.23;;;29.10;98.30;;;;;;5055762;28;20454;-68
2023/07/13 12:31:06;;;;;;;14.23;13.83;;;28.20;98.80;;;;;;5059505;28;20481;-67
2023/07/13 12:33:34;;;;;;;14.00;13.60;;;28.20;98.50;;;;;;5064375;28;20491;-67
2023/07/13 12:36:04;;;;;;;14.63;14.23;;;27.60;98.60;;;;;;5060001;28;20466;-67
2023/07/13 12:38:32;;;;;;;14.80;14.40;;;27.80;99.50;;;;;;5063615;28;20451;-67
2023/07/13 12:40:59;;;;;;;13.97;13.57;;;27.30;99.10;;;;;;5062591;28;20555;-68
2023/07/13 12:43:27;;;;;;;13.60;13.20;;;26.60;99.10;;;;;;5059941;28;20546;-68